Search for airport 
image banner adimage banner adimage banner ad
image banner ad

2CA3 - Crosswinds

Located in Twentynine Palms, United States

ICAO - 2CA3, IATA -

Data provided by Airmate  

General information

Coordinates: N34°9'36" W115°59'51"
Elevation is 1835 feet MSL.
Magnetic variation is 14° East
View others Airports in California

Operational data

Special qualification required
Current time UTC:
Current local time:
Weather at : KNXP - Twentynine Palms Self ( 21 km )
METAR: KNXP 211256Z AUTO 31006KT 4SM HZ CLR 24/M04 A2995 RMK AO2 SLP100 T02441039 $
TAF: TAF KNXP 2109/2209 28012KT 9999 SKC 520009 520903 QNH2983INS FM211430 VRB05KT 9999 SKC 520009 520903 QNH2990INS BECMG 2119/2121 24015KT 9999 SKC 520009 520903 QNH2988INS TEMPO 2121/2203 24020G30KT FM220730 27010KT 9999 SKC 520009 520903 QNH2992INS T26/2113Z T41/2122Z
View NOTAMs / SUP AIP / TFR affecting this airport [VIEW]
Communications frequencies: [VIEW]

Runways:

RWY identifierQFULength (ft)Width (ft)SurfaceLDA (ft)
092600200EARTH
272600200EARTH
181400200EARTH
361400200EARTH

Airport contact information

Address: Twentynine Palms United States

Satellite view of 2CA3